Time;durP1;ratioP1;P1;durP2;ratioP2;P2;SDS_P1;SDS_P2;PMS_P1;PMS_P2;Temp;Humidity;BMP_temperature;BMP_pressure;BME280_temperature;BME280_humidity;BME280_pressure;Samples;Min_cycle;Max_cycle;Signal;HPM_P1;HPM_P2
2022/06/16 00:00:00;;;;;;;;;;;18.70;56.40;;;;;;5010389;28;20335;-72
2022/06/16 00:02:25;;;;;;;;;;;18.70;56.30;;;;;;5010412;28;19909;-72
2022/06/16 00:04:51;;;;;;;;;;;18.60;56.30;;;;;;4995861;28;19914;-73
2022/06/16 00:07:16;;;;;;;;;;;18.50;56.60;;;;;;4991670;28;19913;-72
2022/06/16 00:09:42;;;;;;;;;;;18.40;56.70;;;;;;4990589;28;19910;-73
2022/06/16 00:12:08;;;;;;;;;;;18.40;56.90;;;;;;4990339;28;19956;-73
2022/06/16 00:14:33;;;;;;;;;;;18.40;56.50;;;;;;4991342;28;20013;-73
2022/06/16 00:16:59;;;;;;;;;;;18.40;56.80;;;;;;4993167;28;20016;-72
2022/06/16 00:19:24;;;;;;;;;;;18.40;57.10;;;;;;4993304;28;19910;-74
2022/06/16 00:21:50;;;;;;;;;;;18.30;57.60;;;;;;4994950;28;19941;-72
2022/06/16 00:24:16;;;;;;;;;;;18.30;58.00;;;;;;4994234;28;19909;-76
2022/06/16 00:26:41;;;;;;;;;;;18.30;57.10;;;;;;4995099;28;19917;-76
2022/06/16 00:29:07;;;;;;;;;;;18.30;56.80;;;;;;4993719;28;19918;-73
2022/06/16 00:31:34;;;;;;;;;;;18.20;57.00;;;;;;4994745;28;19909;-76
2022/06/16 00:33:59;;;;;;;;;;;18.10;56.30;;;;;;4994375;28;19945;-74
2022/06/16 00:36:25;;;;;;;;;;;18.10;56.70;;;;;;4995673;28;20421;-77
2022/06/16 00:38:50;;;;;;;;;;;18.10;56.00;;;;;;4994292;28;20408;-73
2022/06/16 00:41:16;;;;;;;;;;;18.10;54.80;;;;;;4993749;28;19917;-73
2022/06/16 00:43:42;;;;;;;;;;;18.20;54.60;;;;;;4994758;28;19964;-74
2022/06/16 00:46:18;;;;;;;;;;;18.10;54.60;;;;;;4993725;28;20354;-72
2022/06/16 00:48:55;;;;;;;;;;;18.20;55.20;;;;;;4994160;28;19910;-72
2022/06/16 00:51:31;;;;;;;;;;;18.20;55.90;;;;;;4993710;28;19910;-72
2022/06/16 00:54:00;;;;;;;;;;;18.20;55.40;;;;;;4994140;28;20354;-72
2022/06/16 00:56:26;;;;;;;;;;;18.20;55.10;;;;;;4995158;28;20243;-72
2022/06/16 00:58:54;;;;;;;;;;;18.10;55.80;;;;;;4993707;28;19913;-72
2022/06/16 01:01:20;;;;;;;;;;;18.10;55.80;;;;;;4993441;28;20255;-72
2022/06/16 01:06:31;;;;;;;;;;;18.00;56.30;;;;;;4995312;28;20352;-73
2022/06/16 01:09:07;;;;;;;;;;;18.10;56.30;;;;;;4993624;28;19961;-72
2022/06/16 01:14:26;;;;;;;;;;;18.00;56.70;;;;;;4995031;28;19957;-72
2022/06/16 01:16:54;;;;;;;;;;;18.00;56.70;;;;;;4993512;28;19922;-72
2022/06/16 01:19:32;;;;;;;;;;;17.90;57.70;;;;;;4992697;28;19921;-72
2022/06/16 01:22:06;;;;;;;;;;;18.00;57.60;;;;;;4993766;28;19910;-74
2022/06/16 01:24:41;;;;;;;;;;;17.80;57.60;;;;;;4993655;28;19910;-74
2022/06/16 01:27:19;;;;;;;;;;;17.90;57.70;;;;;;4991526;28;19916;-73
2022/06/16 01:29:49;;;;;;;;;;;17.80;57.90;;;;;;4992890;28;19916;-74
2022/06/16 01:32:25;;;;;;;;;;;17.80;58.30;;;;;;4992487;28;19920;-74
2022/06/16 01:34:59;;;;;;;;;;;17.80;58.70;;;;;;4993067;28;19955;-74
2022/06/16 01:37:32;;;;;;;;;;;17.80;58.70;;;;;;4992663;28;19914;-73
2022/06/16 01:40:17;;;;;;;;;;;17.70;58.80;;;;;;4992908;28;19909;-74
2022/06/16 01:43:05;;;;;;;;;;;17.60;59.20;;;;;;4993012;28;19910;-74
2022/06/16 01:45:34;;;;;;;;;;;17.60;59.20;;;;;;4992471;28;19984;-73
2022/06/16 01:48:00;;;;;;;;;;;17.50;59.00;;;;;;4992608;28;19913;-74
2022/06/16 01:50:31;;;;;;;;;;;17.40;58.80;;;;;;4992387;28;20438;-74
2022/06/16 01:53:08;;;;;;;;;;;17.40;58.60;;;;;;4993102;28;20012;-74
2022/06/16 01:55:39;;;;;;;;;;;17.30;59.20;;;;;;4992958;28;20290;-74
2022/06/16 01:58:05;;;;;;;;;;;17.20;59.40;;;;;;4992848;28;19913;-74
2022/06/16 02:00:31;;;;;;;;;;;17.30;59.70;;;;;;4992400;28;19910;-76
2022/06/16 02:03:02;;;;;;;;;;;17.10;60.00;;;;;;4994402;28;19925;-75
2022/06/16 02:05:30;;;;;;;;;;;17.30;59.70;;;;;;4992310;28;19910;-74
2022/06/16 02:08:08;;;;;;;;;;;17.30;59.50;;;;;;4993044;28;20258;-73
2022/06/16 02:10:36;;;;;;;;;;;17.30;59.70;;;;;;4992446;28;19914;-73
2022/06/16 02:13:04;;;;;;;;;;;17.10;60.00;;;;;;4992453;28;19914;-73
2022/06/16 02:15:39;;;;;;;;;;;17.00;60.40;;;;;;4992457;28;19910;-72
2022/06/16 02:18:08;;;;;;;;;;;17.00;60.70;;;;;;4992259;28;19918;-73
2022/06/16 02:20:40;;;;;;;;;;;17.00;60.60;;;;;;4992202;28;19921;-74
2022/06/16 02:23:06;;;;;;;;;;;16.90;60.20;;;;;;4992331;28;19909;-72
2022/06/16 02:25:31;;;;;;;;;;;16.90;60.20;;;;;;4992451;28;20271;-75
2022/06/16 02:27:57;;;;;;;;;;;16.80;60.50;;;;;;4992633;28;19914;-74
2022/06/16 02:30:26;;;;;;;;;;;16.70;60.90;;;;;;4991491;28;19909;-75
2022/06/16 02:32:58;;;;;;;;;;;16.70;61.20;;;;;;4992523;28;19910;-75
2022/06/16 02:35:33;;;;;;;;;;;16.70;61.10;;;;;;4991987;28;20278;-73
2022/06/16 02:38:02;;;;;;;;;;;16.80;60.20;;;;;;4991914;28;19913;-72
2022/06/16 02:40:38;;;;;;;;;;;16.80;60.90;;;;;;4991624;28;19995;-74
2022/06/16 02:43:22;;;;;;;;;;;16.80;60.60;;;;;;4992003;28;19917;-73
2022/06/16 02:45:47;;;;;;;;;;;16.80;59.80;;;;;;4993427;28;19918;-73
2022/06/16 02:48:17;;;;;;;;;;;16.70;60.20;;;;;;4991390;28;19914;-73
2022/06/16 02:50:50;;;;;;;;;;;16.70;60.80;;;;;;4991804;28;20418;-75
2022/06/16 02:53:40;;;;;;;;;;;16.70;61.20;;;;;;4991369;28;19995;-75
2022/06/16 02:56:20;;;;;;;;;;;16.70;61.10;;;;;;4992774;28;19924;-75
2022/06/16 02:58:46;;;;;;;;;;;16.70;61.90;;;;;;4992906;28;20364;-74
2022/06/16 03:01:12;;;;;;;;;;;16.70;61.10;;;;;;4991265;28;20374;-76
2022/06/16 03:03:38;;;;;;;;;;;16.70;60.70;;;;;;4991884;28;19917;-73
2022/06/16 03:06:04;;;;;;;;;;;16.90;60.80;;;;;;4991089;28;19913;-76
2022/06/16 03:08:30;;;;;;;;;;;16.80;61.00;;;;;;4992785;28;19910;-75
2022/06/16 03:10:58;;;;;;;;;;;16.80;60.80;;;;;;4991489;28;20329;-75
2022/06/16 03:13:29;;;;;;;;;;;16.80;60.90;;;;;;4991265;28;20005;-74
2022/06/16 03:15:56;;;;;;;;;;;16.80;60.50;;;;;;4991282;28;19952;-76
2022/06/16 03:18:23;;;;;;;;;;;16.80;61.00;;;;;;4990277;28;19963;-74
2022/06/16 03:20:49;;;;;;;;;;;16.80;61.50;;;;;;4991044;28;19910;-73
2022/06/16 03:23:14;;;;;;;;;;;16.70;62.00;;;;;;4990462;28;19917;-73
2022/06/16 03:25:41;;;;;;;;;;;16.70;61.50;;;;;;4990941;28;19917;-73
2022/06/16 03:28:07;;;;;;;;;;;16.70;62.10;;;;;;5023420;23;19979;-82
2022/06/16 03:30:33;;;;;;;;;;;16.60;61.50;;;;;;5012600;28;19937;-81
2022/06/16 03:32:59;;;;;;;;;;;16.70;61.90;;;;;;5013963;28;19914;-81
2022/06/16 03:35:25;;;;;;;;;;;16.60;61.10;;;;;;5014844;28;20265;-81
2022/06/16 03:37:50;;;;;;;;;;;16.90;60.90;;;;;;5015286;28;19921;-81
2022/06/16 03:40:18;;;;;;;;;;;16.80;60.40;;;;;;5010514;28;20292;-81
2022/06/16 03:42:43;;;;;;;;;;;16.70;61.30;;;;;;5012665;28;19952;-81
2022/06/16 03:45:09;;;;;;;;;;;16.70;61.80;;;;;;5010241;28;19964;-81
2022/06/16 03:47:34;;;;;;;;;;;16.80;62.30;;;;;;5011341;28;19918;-82
2022/06/16 03:50:00;;;;;;;;;;;16.90;61.70;;;;;;5010324;28;19920;-81
2022/06/16 03:52:25;;;;;;;;;;;16.90;60.70;;;;;;5012037;28;19913;-80
2022/06/16 03:54:51;;;;;;;;;;;17.00;59.00;;;;;;5009255;28;20004;-80
2022/06/16 03:57:16;;;;;;;;;;;17.40;57.70;;;;;;5013040;28;19936;-80
2022/06/16 03:59:42;;;;;;;;;;;17.70;57.00;;;;;;5010088;28;19940;-81
2022/06/16 04:02:07;;;;;;;;;;;17.60;56.70;;;;;;5011910;28;19916;-81
2022/06/16 04:04:33;;;;;;;;;;;17.60;56.70;;;;;;5011411;28;20020;-80
2022/06/16 04:06:58;;;;;;;;;;;17.60;59.80;;;;;;5011719;28;19916;-80
2022/06/16 04:09:24;;;;;;;;;;;17.30;59.50;;;;;;5011627;28;19952;-81
2022/06/16 04:11:49;;;;;;;;;;;17.30;59.10;;;;;;5014764;28;19932;-81
2022/06/16 04:14:15;;;;;;;;;;;17.40;59.90;;;;;;5014934;28;19910;-81
2022/06/16 04:16:52;;;;;;;;;;;17.40;59.00;;;;;;5016890;28;19928;-81
2022/06/16 04:19:19;;;;;;;;;;;17.60;57.80;;;;;;5014751;28;19909;-81
2022/06/16 04:21:45;;;;;;;;;;;17.70;57.70;;;;;;5015725;28;19952;-81
2022/06/16 04:24:11;;;;;;;;;;;17.90;56.80;;;;;;5016566;28;19932;-81
2022/06/16 04:26:37;;;;;;;;;;;18.10;56.20;;;;;;5016955;28;19915;-82
2022/06/16 04:29:03;;;;;;;;;;;18.10;55.90;;;;;;5015845;28;20003;-81
2022/06/16 04:31:30;;;;;;;;;;;17.70;59.10;;;;;;5013830;28;19991;-81
2022/06/16 04:33:55;;;;;;;;;;;17.90;58.20;;;;;;5014108;28;19909;-81
2022/06/16 04:36:21;;;;;;;;;;;18.00;57.80;;;;;;5015908;28;19940;-84
2022/06/16 04:38:48;;;;;;;;;;;18.00;58.20;;;;;;5035082;28;19913;-85
2022/06/16 04:41:14;;;;;;;;;;;18.00;58.10;;;;;;5036487;28;19901;-84
2022/06/16 04:43:40;;;;;;;;;;;18.00;60.30;;;;;;5032287;28;19936;-81
2022/06/16 04:46:05;;;;;;;;;;;17.90;59.90;;;;;;5015160;28;20008;-82
2022/06/16 04:48:31;;;;;;;;;;;18.00;58.10;;;;;;5010930;28;19914;-82
2022/06/16 04:50:57;;;;;;;;;;;18.00;59.30;;;;;;5014081;28;19913;-82
2022/06/16 04:53:23;;;;;;;;;;;18.00;60.70;;;;;;5009800;28;19914;-82
2022/06/16 04:55:52;;;;;;;;;;;18.00;61.80;;;;;;5011371;28;20017;-82
2022/06/16 04:58:18;;;;;;;;;;;18.10;60.50;;;;;;5010377;28;19970;-84
2022/06/16 05:00:45;;;;;;;;;;;18.10;61.20;;;;;;5006951;28;19957;-81
2022/06/16 05:03:11;;;;;;;;;;;18.20;58.90;;;;;;5008022;28;19959;-81
2022/06/16 05:05:36;;;;;;;;;;;18.40;57.00;;;;;;5009709;28;19914;-82
2022/06/16 05:08:02;;;;;;;;;;;18.40;58.70;;;;;;5011391;28;19936;-82
2022/06/16 05:10:27;;;;;;;;;;;18.40;59.50;;;;;;5011169;28;19981;-82
2022/06/16 05:12:53;;;;;;;;;;;18.30;56.60;;;;;;5006049;28;19917;-82
2022/06/16 05:15:18;;;;;;;;;;;18.30;58.50;;;;;;4992912;28;20369;-83
2022/06/16 05:17:44;;;;;;;;;;;18.30;59.90;;;;;;5013851;28;19914;-82
2022/06/16 05:20:10;;;;;;;;;;;18.30;60.90;;;;;;5010471;28;19917;-80
2022/06/16 05:22:35;;;;;;;;;;;18.40;58.70;;;;;;5009698;28;19932;-80
2022/06/16 05:25:01;;;;;;;;;;;18.40;58.50;;;;;;5010993;28;19957;-82
2022/06/16 05:27:26;;;;;;;;;;;18.40;60.40;;;;;;5011303;28;19976;-82
2022/06/16 05:29:51;;;;;;;;;;;18.40;60.50;;;;;;5009507;28;19963;-82
2022/06/16 05:32:17;;;;;;;;;;;18.40;60.80;;;;;;5008754;28;19913;-83
2022/06/16 05:34:44;;;;;;;;;;;18.50;60.60;;;;;;5010838;28;19960;-82
2022/06/16 05:37:09;;;;;;;;;;;18.60;60.10;;;;;;5008777;28;20339;-83
2022/06/16 05:39:35;;;;;;;;;;;18.80;58.80;;;;;;5010586;28;19941;-82
2022/06/16 05:42:00;;;;;;;;;;;18.90;57.40;;;;;;5010148;28;19987;-84
2022/06/16 05:44:26;;;;;;;;;;;19.10;56.90;;;;;;5010149;28;19913;-82
2022/06/16 05:46:51;;;;;;;;;;;19.20;57.00;;;;;;5010719;28;20288;-81
2022/06/16 05:49:18;;;;;;;;;;;19.30;56.50;;;;;;5006926;28;19914;-81
2022/06/16 05:51:44;;;;;;;;;;;19.30;56.50;;;;;;5010296;28;20276;-81
2022/06/16 05:54:09;;;;;;;;;;;19.30;56.40;;;;;;5011444;28;19910;-81
2022/06/16 05:56:35;;;;;;;;;;;19.50;56.70;;;;;;5013818;28;19910;-81
2022/06/16 05:59:00;;;;;;;;;;;19.60;56.20;;;;;;5010933;28;19918;-82
2022/06/16 06:01:26;;;;;;;;;;;19.70;56.10;;;;;;5012557;28;19909;-81
2022/06/16 06:03:51;;;;;;;;;;;19.70;56.00;;;;;;5013439;28;19959;-81
2022/06/16 06:06:17;;;;;;;;;;;19.80;55.50;;;;;;5013321;28;20017;-86
2022/06/16 06:17:08;;;;;;;;;;;21.00;52.20;;;;;;5010941;28;19972;-82
2022/06/16 06:19:34;;;;;;;;;;;21.90;51.20;;;;;;5010651;28;19916;-81
2022/06/16 06:22:06;;;;;;;;;;;22.20;49.80;;;;;;5009869;28;19914;-82
2022/06/16 06:24:33;;;;;;;;;;;21.90;50.40;;;;;;5008382;28;20464;-83
2022/06/16 06:27:03;;;;;;;;;;;21.80;50.40;;;;;;5010233;28;19960;-84
2022/06/16 06:29:29;;;;;;;;;;;22.50;50.60;;;;;;5009545;28;19924;-83
2022/06/16 06:31:55;;;;;;;;;;;22.70;50.10;;;;;;5010482;28;19993;-82
2022/06/16 06:34:22;;;;;;;;;;;22.80;48.40;;;;;;5010250;28;19910;-82
2022/06/16 06:36:47;;;;;;;;;;;22.70;48.80;;;;;;5012277;28;19910;-83
2022/06/16 06:39:13;;;;;;;;;;;22.90;48.80;;;;;;5010593;28;19909;-81
2022/06/16 06:41:39;;;;;;;;;;;23.80;47.80;;;;;;5005195;28;19917;-82
2022/06/16 06:44:04;;;;;;;;;;;24.40;47.10;;;;;;5010802;28;20544;-83
2022/06/16 06:46:30;;;;;;;;;;;24.70;46.50;;;;;;5012307;28;19916;-84
2022/06/16 06:48:55;;;;;;;;;;;25.00;45.80;;;;;;5012893;28;19910;-84
2022/06/16 06:51:21;;;;;;;;;;;25.30;45.20;;;;;;5009355;28;19913;-83
2022/06/16 06:53:46;;;;;;;;;;;25.50;45.00;;;;;;5010786;28;19936;-78
2022/06/16 06:56:13;;;;;;;;;;;25.30;45.10;;;;;;5010774;28;19917;-79
2022/06/16 06:58:39;;;;;;;;;;;25.40;45.00;;;;;;5006896;28;19925;-78
2022/06/16 07:01:06;;;;;;;;;;;25.20;45.10;;;;;;5011643;28;19917;-76
2022/06/16 07:03:32;;;;;;;;;;;25.30;44.90;;;;;;5010894;28;19960;-77
2022/06/16 07:06:00;;;;;;;;;;;25.30;44.60;;;;;;5007974;28;19944;-77
2022/06/16 07:08:26;;;;;;;;;;;25.20;44.60;;;;;;5011179;28;19914;-77
2022/06/16 07:10:51;;;;;;;;;;;25.50;44.40;;;;;;5012173;28;19913;-77
2022/06/16 07:13:17;;;;;;;;;;;25.90;43.60;;;;;;5012168;28;20024;-78
2022/06/16 07:15:43;;;;;;;;;;;26.20;42.90;;;;;;5012087;28;19999;-77
2022/06/16 07:18:08;;;;;;;;;;;26.50;42.30;;;;;;5009633;28;20016;-77
2022/06/16 07:20:34;;;;;;;;;;;26.20;42.40;;;;;;5008025;28;19914;-77
2022/06/16 07:22:59;;;;;;;;;;;25.80;42.90;;;;;;5007235;28;19917;-78
2022/06/16 07:25:25;;;;;;;;;;;25.60;43.00;;;;;;5003371;28;20373;-78
2022/06/16 07:27:53;;;;;;;;;;;25.00;44.60;;;;;;5015735;28;19916;-80
2022/06/16 07:30:19;;;;;;;;;;;24.60;46.00;;;;;;5010752;28;19909;-80
2022/06/16 07:32:45;;;;;;;;;;;24.30;46.50;;;;;;5011226;28;19913;-82
2022/06/16 07:35:12;;;;;;;;;;;24.20;47.00;;;;;;5023746;28;19916;-82
2022/06/16 07:37:38;;;;;;;;;;;24.10;47.30;;;;;;5026773;28;19917;-79
2022/06/16 07:40:05;;;;;;;;;;;24.00;47.60;;;;;;5011137;28;19980;-78
2022/06/16 07:42:30;;;;;;;;;;;24.70;46.80;;;;;;5007793;28;20336;-79
2022/06/16 07:44:56;;;;;;;;;;;25.70;44.70;;;;;;5011844;28;19918;-80
2022/06/16 07:47:21;;;;;;;;;;;26.20;43.60;;;;;;5011816;28;19957;-80
2022/06/16 07:49:49;;;;;;;;;;;26.40;43.20;;;;;;5015224;28;19959;-80
2022/06/16 07:52:15;;;;;;;;;;;26.40;42.70;;;;;;5030597;28;19913;-77
2022/06/16 07:54:40;;;;;;;;;;;26.20;43.40;;;;;;5028389;28;20290;-76
2022/06/16 07:57:06;;;;;;;;;;;25.70;44.00;;;;;;5026494;28;19939;-77
2022/06/16 07:59:31;;;;;;;;;;;25.30;44.70;;;;;;5025407;28;19939;-77
2022/06/16 08:01:57;;;;;;;;;;;25.40;44.90;;;;;;5027779;28;19936;-77
2022/06/16 08:04:23;;;;;;;;;;;25.50;44.80;;;;;;5026679;28;20464;-77
2022/06/16 08:06:49;;;;;;;;;;;25.60;44.40;;;;;;5028326;28;20039;-77
2022/06/16 08:09:15;;;;;;;;;;;25.50;44.60;;;;;;5025171;28;20004;-77
2022/06/16 08:14:24;;;;;;;;;;;25.60;44.60;;;;;;5026783;28;19970;-76
2022/06/16 08:16:50;;;;;;;;;;;25.90;44.20;;;;;;5027299;28;19913;-77
2022/06/16 08:19:15;;;;;;;;;;;26.10;43.70;;;;;;5024742;28;20254;-76
2022/06/16 08:21:41;;;;;;;;;;;26.20;43.40;;;;;;5029920;28;20280;-77
2022/06/16 08:24:06;;;;;;;;;;;26.40;43.30;;;;;;5030934;28;19909;-77
2022/06/16 08:26:33;;;;;;;;;;;26.50;43.00;;;;;;5029732;28;19916;-77
2022/06/16 08:28:59;;;;;;;;;;;26.70;42.80;;;;;;5030003;28;20392;-76
2022/06/16 08:31:25;;;;;;;;;;;26.80;42.40;;;;;;5031010;28;19913;-77
2022/06/16 08:33:51;;;;;;;;;;;26.90;42.10;;;;;;5030878;28;19956;-77
2022/06/16 08:36:17;;;;;;;;;;;27.20;41.90;;;;;;5030954;28;19914;-77
2022/06/16 08:38:43;;;;;;;;;;;27.30;41.50;;;;;;5032611;28;19923;-76
2022/06/16 08:41:13;;;;;;;;;;;27.40;41.30;;;;;;5029498;28;19909;-77
2022/06/16 08:44:00;;;;;;;;;;;27.30;41.50;;;;;;5029254;28;20000;-77
2022/06/16 08:46:29;;;;;;;;;;;27.40;41.30;;;;;;5026301;28;20261;-77
2022/06/16 08:49:14;;;;;;;;;;;27.50;41.60;;;;;;5031335;28;19913;-77
2022/06/16 08:51:45;;;;;;;;;;;27.50;41.70;;;;;;5013517;28;19923;-77
2022/06/16 08:54:11;;;;;;;;;;;27.40;41.80;;;;;;5023385;28;19913;-77
2022/06/16 08:56:52;;;;;;;;;;;27.30;41.90;;;;;;5014369;28;19913;-77
2022/06/16 08:59:25;;;;;;;;;;;27.20;41.80;;;;;;5020674;28;19928;-76
2022/06/16 09:02:03;;;;;;;;;;;27.20;42.30;;;;;;5031190;28;19912;-76
2022/06/16 09:04:41;;;;;;;;;;;27.10;42.40;;;;;;5014375;28;19933;-76
2022/06/16 09:07:07;;;;;;;;;;;27.10;42.50;;;;;;4994827;28;19933;-77
2022/06/16 09:12:44;;;;;;;;;;;27.00;42.90;;;;;;5018568;28;19916;-76
2022/06/16 09:15:20;;;;;;;;;;;27.00;43.00;;;;;;5019316;28;19955;-76
2022/06/16 09:17:54;;;;;;;;;;;27.00;42.90;;;;;;5008956;28;19921;-77
2022/06/16 09:20:20;;;;;;;;;;;27.00;43.10;;;;;;5008742;28;20418;-77
2022/06/16 09:22:58;;;;;;;;;;;27.00;42.80;;;;;;5010961;28;20000;-77
2022/06/16 09:25:32;;;;;;;;;;;27.00;42.70;;;;;;5010290;28;19910;-78
2022/06/16 09:28:06;;;;;;;;;;;27.10;42.70;;;;;;5010090;28;20403;-77
2022/06/16 09:30:36;;;;;;;;;;;27.10;43.00;;;;;;5009886;28;20365;-76
2022/06/16 09:33:11;;;;;;;;;;;27.10;43.00;;;;;;5015369;28;19933;-75
2022/06/16 09:35:41;;;;;;;;;;;27.20;43.50;;;;;;5014908;28;19948;-76
2022/06/16 09:38:08;;;;;;;;;;;27.30;43.60;;;;;;5014087;28;20258;-76
2022/06/16 09:40:45;;;;;;;;;;;27.30;43.80;;;;;;5013943;28;19945;-76
2022/06/16 09:43:26;;;;;;;;;;;27.30;43.40;;;;;;5014024;28;20033;-77
2022/06/16 09:45:59;;;;;;;;;;;27.20;43.40;;;;;;5014050;28;20005;-77
2022/06/16 09:48:34;;;;;;;;;;;27.10;43.90;;;;;;5012493;28;19948;-77
2022/06/16 09:51:06;;;;;;;;;;;27.00;43.80;;;;;;5012944;28;19959;-77
2022/06/16 09:53:47;;;;;;;;;;;26.90;44.50;;;;;;5012908;28;19987;-77
2022/06/16 09:56:26;;;;;;;;;;;26.90;44.50;;;;;;5014631;28;19914;-76
2022/06/16 09:58:56;;;;;;;;;;;26.80;44.60;;;;;;5012186;28;19964;-77
2022/06/16 10:01:25;;;;;;;;;;;26.80;44.60;;;;;;5010367;28;19960;-76
2022/06/16 10:03:55;;;;;;;;;;;26.80;44.80;;;;;;5008531;28;19914;-78
2022/06/16 10:06:37;;;;;;;;;;;26.70;44.50;;;;;;5012390;28;20346;-77
2022/06/16 10:09:15;;;;;;;;;;;26.60;44.50;;;;;;5009910;28;20285;-77
2022/06/16 10:12:01;;;;;;;;;;;26.50;44.60;;;;;;5011053;28;20335;-76
2022/06/16 10:14:38;;;;;;;;;;;26.50;44.60;;;;;;5012855;28;19917;-76
2022/06/16 10:17:12;;;;;;;;;;;26.50;44.50;;;;;;5011798;28;19909;-77
2022/06/16 10:19:39;;;;;;;;;;;26.40;44.60;;;;;;5011111;28;20455;-76
2022/06/16 10:22:05;;;;;;;;;;;26.40;44.80;;;;;;5009325;28;19916;-77
2022/06/16 10:24:43;;;;;;;;;;;26.30;44.90;;;;;;5009020;28;19913;-78
2022/06/16 10:27:09;;;;;;;;;;;26.20;44.80;;;;;;5009658;28;19953;-79
2022/06/16 10:29:36;;;;;;;;;;;26.20;45.00;;;;;;5009372;28;19959;-79
2022/06/16 10:32:03;;;;;;;;;;;26.10;45.10;;;;;;5009018;28;19913;-78
2022/06/16 10:34:34;;;;;;;;;;;26.00;45.20;;;;;;5009457;28;19916;-78
2022/06/16 10:37:04;;;;;;;;;;;26.00;45.40;;;;;;5008833;28;19963;-79
2022/06/16 10:39:40;;;;;;;;;;;25.90;45.50;;;;;;5006732;28;19991;-79
2022/06/16 10:42:12;;;;;;;;;;;25.80;45.60;;;;;;5007468;28;19914;-79
2022/06/16 10:44:38;;;;;;;;;;;25.70;45.80;;;;;;5021474;28;19917;-79
2022/06/16 10:47:06;;;;;;;;;;;25.70;45.90;;;;;;5078329;22;19936;-77
2022/06/16 10:49:36;;;;;;;;;;;25.60;46.10;;;;;;5048393;28;19909;-78
2022/06/16 10:52:04;;;;;;;;;;;25.60;46.20;;;;;;5051471;28;20224;-78
2022/06/16 10:54:32;;;;;;;;;;;25.50;46.20;;;;;;5054425;28;19912;-78
2022/06/16 10:57:27;;;;;;;;;;;25.50;46.30;;;;;;5056319;28;19920;-77
2022/06/16 11:00:04;;;;;;;;;;;25.40;46.30;;;;;;5011852;28;19913;-78
2022/06/16 11:02:32;;;;;;;;;;;25.50;46.40;;;;;;5049293;28;19916;-78
2022/06/16 11:05:05;;;;;;;;;;;25.50;46.30;;;;;;5056234;28;19913;-78
2022/06/16 11:07:35;;;;;;;;;;;25.40;46.30;;;;;;5054297;28;20003;-77
2022/06/16 11:10:04;;;;;;;;;;;25.50;46.30;;;;;;5057897;28;19960;-78
2022/06/16 11:12:30;;;;;;;;;;;25.40;46.20;;;;;;5038739;28;19953;-78
2022/06/16 11:14:59;;;;;;;;;;;25.40;46.30;;;;;;5016576;28;19914;-78
2022/06/16 11:17:26;;;;;;;;;;;25.30;46.50;;;;;;5015819;28;20015;-78
2022/06/16 11:19:52;;;;;;;;;;;25.30;46.60;;;;;;5015469;28;20273;-78
2022/06/16 11:22:27;;;;;;;;;;;25.30;46.70;;;;;;5031327;28;20410;-79
2022/06/16 11:25:00;;;;;;;;;;;25.30;46.80;;;;;;5032727;28;19945;-78
2022/06/16 11:27:28;;;;;;;;;;;25.20;46.80;;;;;;5035502;28;19910;-78
2022/06/16 11:29:54;;;;;;;;;;;25.20;46.80;;;;;;5025767;28;19909;-78
2022/06/16 11:32:22;;;;;;;;;;;25.20;46.80;;;;;;5012453;28;19917;-79
2022/06/16 11:34:47;;;;;;;;;;;25.20;46.80;;;;;;5013961;28;19980;-79
2022/06/16 11:37:28;;;;;;;;;;;25.20;47.00;;;;;;5016304;28;19940;-77
2022/06/16 11:39:55;;;;;;;;;;;25.20;47.00;;;;;;5013538;28;19910;-79
2022/06/16 11:42:24;;;;;;;;;;;25.20;47.00;;;;;;5014901;28;20357;-78
2022/06/16 11:44:59;;;;;;;;;;;25.20;47.00;;;;;;5011906;28;19914;-78
2022/06/16 11:47:43;;;;;;;;;;;25.10;47.00;;;;;;5014778;28;19922;-79
2022/06/16 11:50:27;;;;;;;;;;;25.10;47.10;;;;;;5034222;28;19932;-79
2022/06/16 11:53:02;;;;;;;;;;;25.10;47.20;;;;;;5032458;28;19909;-78
2022/06/16 11:55:36;;;;;;;;;;;25.10;47.30;;;;;;5032034;28;19920;-79
2022/06/16 11:58:02;;;;;;;;;;;25.00;47.30;;;;;;5037311;28;19913;-77
2022/06/16 12:00:41;;;;;;;;;;;25.00;47.30;;;;;;5034048;28;19909;-78
2022/06/16 12:03:16;;;;;;;;;;;25.00;47.30;;;;;;5048548;28;19902;-80
2022/06/16 12:05:59;;;;;;;;;;;25.00;47.30;;;;;;5040273;28;19909;-79
2022/06/16 12:08:40;;;;;;;;;;;25.00;47.40;;;;;;5038066;28;19917;-79
2022/06/16 12:11:08;;;;;;;;;;;25.00;47.30;;;;;;5032217;28;19915;-79
2022/06/16 12:13:43;;;;;;;;;;;25.00;47.40;;;;;;5042207;28;20003;-79
2022/06/16 12:16:15;;;;;;;;;;;25.10;47.30;;;;;;5059535;28;19913;-79
2022/06/16 12:18:54;;;;;;;;;;;25.10;47.30;;;;;;5060962;28;19974;-79
2022/06/16 12:21:32;;;;;;;;;;;25.00;47.30;;;;;;5018322;28;19918;-79
2022/06/16 12:24:01;;;;;;;;;;;25.00;47.40;;;;;;5034246;28;19916;-78
2022/06/16 12:26:33;;;;;;;;;;;25.00;47.50;;;;;;5037219;28;19913;-79
2022/06/16 12:29:12;;;;;;;;;;;25.00;47.50;;;;;;5036130;28;19928;-79
2022/06/16 12:32:01;;;;;;;;;;;24.90;47.50;;;;;;5027182;28;19913;-79
2022/06/16 12:34:45;;;;;;;;;;;24.90;47.50;;;;;;5035175;28;20444;-79
2022/06/16 12:37:13;;;;;;;;;;;24.90;47.50;;;;;;5015274;28;20400;-79
2022/06/16 12:39:52;;;;;;;;;;;24.90;47.60;;;;;;5028539;28;19913;-78
2022/06/16 12:42:20;;;;;;;;;;;24.90;47.60;;;;;;5034236;28;19909;-79
2022/06/16 12:44:52;;;;;;;;;;;24.90;47.70;;;;;;5037057;28;19909;-79
2022/06/16 12:47:19;;;;;;;;;;;24.90;47.60;;;;;;5034847;28;19924;-79
2022/06/16 12:49:45;;;;;;;;;;;24.90;47.70;;;;;;5035957;28;19913;-79
2022/06/16 12:52:16;;;;;;;;;;;24.90;47.60;;;;;;5021368;28;20171;-79
2022/06/16 12:54:45;;;;;;;;;;;24.90;47.60;;;;;;5020523;28;20443;-80
2022/06/16 12:57:13;;;;;;;;;;;24.90;47.70;;;;;;5044027;28;20419;-79
2022/06/16 13:00:05;;;;;;;;;;;24.90;47.80;;;;;;5054381;28;19963;-79
2022/06/16 13:02:35;;;;;;;;;;;25.00;47.90;;;;;;5050933;28;19909;-79
2022/06/16 13:05:08;;;;;;;;;;;25.00;47.90;;;;;;5042579;28;19952;-80
2022/06/16 13:07:35;;;;;;;;;;;25.00;48.20;;;;;;5037199;28;20372;-80
2022/06/16 13:10:00;;;;;;;;;;;25.00;48.10;;;;;;5032578;28;19909;-80
2022/06/16 13:12:32;;;;;;;;;;;25.00;48.00;;;;;;5021013;28;19963;-80
2022/06/16 13:15:00;;;;;;;;;;;25.00;48.00;;;;;;5013613;28;19909;-80
2022/06/16 13:17:27;;;;;;;;;;;25.00;47.90;;;;;;5014972;28;19936;-80
2022/06/16 13:19:56;;;;;;;;;;;25.00;47.90;;;;;;5014424;28;19913;-80
2022/06/16 13:22:48;;;;;;;;;;;24.90;47.80;;;;;;5017237;28;20377;-79
2022/06/16 13:25:32;;;;;;;;;;;25.00;47.90;;;;;;5025898;28;19921;-80
2022/06/16 13:27:58;;;;;;;;;;;25.00;47.80;;;;;;5030753;28;19913;-80
2022/06/16 13:30:29;;;;;;;;;;;24.90;47.80;;;;;;5028060;28;20047;-80
2022/06/16 13:33:01;;;;;;;;;;;25.00;47.80;;;;;;5022739;28;20346;-79
2022/06/16 13:35:31;;;;;;;;;;;24.90;47.80;;;;;;5031237;28;19913;-80
2022/06/16 13:38:02;;;;;;;;;;;24.90;47.70;;;;;;5025578;28;19918;-81
2022/06/16 13:40:29;;;;;;;;;;;24.90;47.70;;;;;;5028439;28;19916;-80
2022/06/16 13:43:04;;;;;;;;;;;24.90;47.80;;;;;;5030938;28;20373;-80
2022/06/16 13:45:29;;;;;;;;;;;24.90;47.80;;;;;;5027543;28;19913;-80
2022/06/16 13:48:14;;;;;;;;;;;24.90;47.70;;;;;;5032302;28;19917;-80
2022/06/16 13:50:41;;;;;;;;;;;24.90;47.70;;;;;;5027943;28;20359;-80
2022/06/16 13:53:07;;;;;;;;;;;24.90;47.70;;;;;;5024179;28;20012;-80
2022/06/16 13:55:34;;;;;;;;;;;24.90;47.70;;;;;;5029675;28;19909;-81
2022/06/16 13:58:09;;;;;;;;;;;24.90;47.70;;;;;;5030779;28;19912;-80
2022/06/16 14:00:36;;;;;;;;;;;24.90;47.70;;;;;;5029431;28;20289;-79
2022/06/16 14:03:02;;;;;;;;;;;24.90;47.70;;;;;;5024737;28;19917;-81
2022/06/16 14:05:29;;;;;;;;;;;24.90;47.70;;;;;;5011980;28;19916;-80
2022/06/16 14:07:57;;;;;;;;;;;24.90;47.70;;;;;;5031538;28;19940;-80
2022/06/16 14:10:33;;;;;;;;;;;24.90;47.70;;;;;;5025109;28;20397;-81
2022/06/16 14:13:05;;;;;;;;;;;24.90;47.70;;;;;;5022557;28;19921;-80
2022/06/16 14:15:49;;;;;;;;;;;24.90;47.70;;;;;;5033893;28;19916;-80
2022/06/16 14:18:27;;;;;;;;;;;24.90;47.70;;;;;;5035481;28;20349;-80
2022/06/16 14:20:59;;;;;;;;;;;24.90;47.70;;;;;;5016830;28;20285;-79
2022/06/16 14:23:40;;;;;;;;;;;24.90;47.70;;;;;;5021700;28;19914;-80
2022/06/16 14:26:09;;;;;;;;;;;24.90;47.70;;;;;;5021116;28;20012;-80
2022/06/16 14:28:37;;;;;;;;;;;24.80;47.60;;;;;;5026170;28;19917;-80
2022/06/16 14:31:10;;;;;;;;;;;24.90;47.70;;;;;;5025331;28;20387;-80
2022/06/16 14:33:40;;;;;;;;;;;24.90;47.70;;;;;;5029900;28;19921;-85
2022/06/16 14:36:26;;;;;;;;;;;24.90;47.60;;;;;;5027075;28;19925;-78
2022/06/16 14:38:55;;;;;;;;;;;24.90;47.60;;;;;;5017433;28;19917;-80
2022/06/16 14:41:25;;;;;;;;;;;24.90;47.60;;;;;;5027075;28;19913;-79
2022/06/16 14:44:02;;;;;;;;;;;24.90;47.50;;;;;;5029060;28;21333;-81
2022/06/16 14:46:30;;;;;;;;;;;24.90;47.60;;;;;;5032121;28;20394;-80
2022/06/16 14:48:59;;;;;;;;;;;24.80;47.50;;;;;;5032359;28;20376;-80